Time;durP1;ratioP1;P1;durP2;ratioP2;P2;SDS_P1;SDS_P2;PMS_P1;PMS_P2;Temp;Humidity;BMP_temperature;BMP_pressure;BME280_temperature;BME280_humidity;BME280_pressure;Samples;Min_cycle;Max_cycle;Signal;HPM_P1;HPM_P2
2022/06/14 00:02:37;;;;;;;3.07;1.77;;;;;;;;;;4985591;28;20209;-28
2022/06/14 00:05:05;;;;;;;2.00;1.50;;;;;;;;;;4991593;28;20203;-30
2022/06/14 00:07:33;;;;;;;3.03;1.60;;;;;;;;;;4986737;28;20228;-32
2022/06/14 00:10:00;;;;;;;1.83;1.73;;;;;;;;;;4992707;28;20573;-33
2022/06/14 00:12:27;;;;;;;4.30;1.50;;;;;;;;;;4986492;28;20231;-32
2022/06/14 00:14:56;;;;;;;1.43;1.33;;;;;;;;;;4986746;28;20298;-33
2022/06/14 00:17:23;;;;;;;2.67;1.90;;;;;;;;;;4988224;28;20228;-30
2022/06/14 00:19:53;;;;;;;3.00;1.90;;;;;;;;;;4988687;28;20309;-30
2022/06/14 00:22:20;;;;;;;2.70;2.10;;;;;;;;;;4983233;28;20217;-28
2022/06/14 00:24:48;;;;;;;1.70;1.60;;;;;;;;;;4995017;28;20221;-30
2022/06/14 00:27:15;;;;;;;1.40;1.30;;;;;;;;;;4996226;28;20232;-30
2022/06/14 00:29:43;;;;;;;2.87;1.70;;;;;;;;;;4997154;28;20225;-33
2022/06/14 00:32:10;;;;;;;2.73;1.67;;;;;;;;;;4990587;28;20217;-28
2022/06/14 00:34:37;;;;;;;2.17;1.90;;;;;;;;;;4992856;28;20216;-32
2022/06/14 00:37:04;;;;;;;3.00;2.20;;;;;;;;;;4989436;28;20236;-26
2022/06/14 00:39:31;;;;;;;2.10;1.70;;;;;;;;;;4989470;28;20218;-29
2022/06/14 00:42:00;;;;;;;3.03;1.90;;;;;;;;;;4982819;28;20211;-28
2022/06/14 00:44:28;;;;;;;2.30;1.70;;;;;;;;;;4987710;28;20205;-30
2022/06/14 00:46:57;;;;;;;2.43;2.10;;;;;;;;;;4991036;28;20710;-29
2022/06/14 00:49:25;;;;;;;3.17;1.67;;;;;;;;;;4988119;28;20644;-29
2022/06/14 00:51:54;;;;;;;3.43;1.93;;;;;;;;;;4973638;28;20211;-31
2022/06/14 00:54:22;;;;;;;2.97;1.70;;;;;;;;;;4972688;28;20236;-30
2022/06/14 00:56:52;;;;;;;2.10;1.90;;;;;;;;;;4986439;28;20244;-30
2022/06/14 00:59:24;;;;;;;4.40;1.67;;;;;;;;;;4972585;28;20249;-29
2022/06/14 01:01:53;;;;;;;2.83;2.00;;;;;;;;;;4976216;28;20216;-30
2022/06/14 01:04:23;;;;;;;1.93;1.83;;;;;;;;;;4982669;28;20205;-28
2022/06/14 01:06:57;;;;;;;3.40;1.90;;;;;;;;;;4972012;28;20222;-30
2022/06/14 01:09:28;;;;;;;1.80;1.70;;;;;;;;;;4982186;28;20201;-30
2022/06/14 01:11:56;;;;;;;2.33;2.13;;;;;;;;;;4979981;28;20207;-29
2022/06/14 01:14:28;;;;;;;2.40;1.77;;;;;;;;;;4985640;28;20225;-30
2022/06/14 01:16:55;;;;;;;2.57;1.67;;;;;;;;;;4978249;28;20221;-30
2022/06/14 01:19:23;;;;;;;2.40;1.53;;;;;;;;;;4988301;28;20212;-30
2022/06/14 01:21:53;;;;;;;4.20;2.50;;;;;;;;;;4984995;28;20207;-31
2022/06/14 01:24:21;;;;;;;1.97;1.50;;;;;;;;;;4976035;28;20234;-30
2022/06/14 01:26:49;;;;;;;1.93;1.60;;;;;;;;;;4988497;28;20229;-28
2022/06/14 01:29:17;;;;;;;3.27;2.00;;;;;;;;;;4992786;28;20205;-32
2022/06/14 01:31:44;;;;;;;3.70;1.97;;;;;;;;;;4991720;28;20253;-30
2022/06/14 01:34:11;;;;;;;2.23;1.90;;;;;;;;;;4988365;28;20236;-29
2022/06/14 01:36:40;;;;;;;1.80;1.70;;;;;;;;;;4973480;28;20227;-28
2022/06/14 01:39:10;;;;;;;2.10;1.90;;;;;;;;;;4997714;28;20217;-28
2022/06/14 01:41:43;;;;;;;2.93;1.83;;;;;;;;;;4994808;28;20684;-31
2022/06/14 01:44:18;;;;;;;2.40;1.77;;;;;;;;;;4984494;28;20551;-29
2022/06/14 01:46:48;;;;;;;3.07;1.90;;;;;;;;;;4990441;28;20236;-32
2022/06/14 01:52:11;;;;;;;3.17;1.97;;;;;;;;;;4989782;28;20256;-29
2022/06/14 01:54:42;;;;;;;3.40;1.80;;;;;;;;;;4989997;28;20227;-29
2022/06/14 01:57:13;;;;;;;2.40;1.80;;;;;;;;;;5000377;28;20234;-28
2022/06/14 02:02:17;;;;;;;3.53;1.83;;;;;;;;;;5002240;28;20223;-30
2022/06/14 02:04:47;;;;;;;14.73;1.93;;;;;;;;;;5008656;28;21033;-30
2022/06/14 02:07:24;;;;;;;2.40;1.90;;;;;;;;;;5010935;28;20257;-30
2022/06/14 02:09:56;;;;;;;3.30;2.00;;;;;;;;;;5011305;28;20218;-32
2022/06/14 02:12:26;;;;;;;2.00;1.80;;;;;;;;;;5000900;28;20591;-30
2022/06/14 02:14:58;;;;;;;3.37;1.67;;;;;;;;;;4999687;28;20239;-30
2022/06/14 02:17:27;;;;;;;3.07;1.80;;;;;;;;;;4993658;28;20224;-27
2022/06/14 02:19:59;;;;;;;2.70;1.70;;;;;;;;;;4994976;28;20219;-28
2022/06/14 02:22:29;;;;;;;5.80;2.10;;;;;;;;;;4995508;28;20563;-29
2022/06/14 02:24:59;;;;;;;2.87;1.70;;;;;;;;;;4989213;28;20654;-28
2022/06/14 02:27:27;;;;;;;1.83;1.57;;;;;;;;;;4998182;28;20708;-31
2022/06/14 02:29:56;;;;;;;4.73;2.10;;;;;;;;;;5000064;28;20215;-29
2022/06/14 02:32:26;;;;;;;4.47;1.87;;;;;;;;;;5003927;28;20218;-30
2022/06/14 02:34:55;;;;;;;3.00;2.00;;;;;;;;;;4999052;28;20220;-30
2022/06/14 02:37:25;;;;;;;2.60;1.87;;;;;;;;;;5006260;28;20227;-29
2022/06/14 02:39:55;;;;;;;4.53;2.33;;;;;;;;;;5004159;28;21203;-28
2022/06/14 02:42:27;;;;;;;1.40;1.40;;;;;;;;;;4997659;28;20204;-29
2022/06/14 02:44:57;;;;;;;2.13;1.70;;;;;;;;;;4993028;28;20200;-29
2022/06/14 02:47:27;;;;;;;4.47;1.93;;;;;;;;;;5001931;28;20228;-34
2022/06/14 02:49:57;;;;;;;4.53;1.57;;;;;;;;;;5008150;28;20204;-32
2022/06/14 02:52:30;;;;;;;2.87;1.80;;;;;;;;;;4995298;28;20208;-32
2022/06/14 02:55:00;;;;;;;2.00;1.77;;;;;;;;;;4988475;28;20228;-28
2022/06/14 02:57:34;;;;;;;2.77;1.70;;;;;;;;;;4996612;28;20715;-31
2022/06/14 03:00:07;;;;;;;2.60;1.70;;;;;;;;;;4999885;28;20199;-30
2022/06/14 03:02:37;;;;;;;2.33;1.97;;;;;;;;;;4998021;28;20223;-32
2022/06/14 03:05:08;;;;;;;3.23;1.83;;;;;;;;;;5003079;28;20207;-30
2022/06/14 03:07:40;;;;;;;2.23;1.70;;;;;;;;;;5009998;28;20219;-32
2022/06/14 03:10:07;;;;;;;2.00;1.70;;;;;;;;;;5007794;28;20211;-28
2022/06/14 03:12:41;;;;;;;2.20;2.00;;;;;;;;;;4997139;28;20212;-30
2022/06/14 03:15:13;;;;;;;3.90;2.00;;;;;;;;;;5002188;28;20301;-30
2022/06/14 03:17:48;;;;;;;4.70;1.73;;;;;;;;;;4999681;28;20219;-31
2022/06/14 03:20:23;;;;;;;3.50;2.10;;;;;;;;;;5002136;28;20211;-31
2022/06/14 03:22:54;;;;;;;3.67;1.90;;;;;;;;;;5009282;28;20210;-33
2022/06/14 03:25:24;;;;;;;2.93;1.97;;;;;;;;;;5008205;28;20207;-32
2022/06/14 03:27:55;;;;;;;2.10;1.90;;;;;;;;;;4998519;28;20238;-34
2022/06/14 03:30:24;;;;;;;2.33;1.63;;;;;;;;;;5003074;28;20196;-32
2022/06/14 03:32:55;;;;;;;3.63;1.80;;;;;;;;;;5000275;28;20222;-31
2022/06/14 03:35:25;;;;;;;3.30;1.80;;;;;;;;;;4995631;28;20200;-30
2022/06/14 03:37:53;;;;;;;2.83;2.10;;;;;;;;;;4992182;28;20311;-28
2022/06/14 03:40:21;;;;;;;3.43;2.30;;;;;;;;;;4992678;28;20827;-31
2022/06/14 03:42:48;;;;;;;1.83;1.73;;;;;;;;;;4999394;28;20207;-29
2022/06/14 03:45:18;;;;;;;2.37;2.10;;;;;;;;;;4991692;28;20288;-31
2022/06/14 03:47:45;;;;;;;3.53;2.10;;;;;;;;;;5000650;28;20237;-33
2022/06/14 03:50:15;;;;;;;2.17;1.97;;;;;;;;;;5002082;28;20204;-31
2022/06/14 03:52:58;;;;;;;2.03;1.93;;;;;;;;;;5012057;28;20219;-29
2022/06/14 03:55:35;;;;;;;2.03;1.87;;;;;;;;;;5003736;28;20212;-28
2022/06/14 03:58:08;;;;;;;2.27;1.83;;;;;;;;;;5006504;28;20669;-33
2022/06/14 04:00:41;;;;;;;2.37;2.00;;;;;;;;;;4992375;28;20218;-30
2022/06/14 04:03:14;;;;;;;2.17;1.97;;;;;;;;;;4996595;28;20192;-29
2022/06/14 04:05:47;;;;;;;2.00;1.87;;;;;;;;;;4993149;28;20211;-29
2022/06/14 04:08:22;;;;;;;2.20;2.00;;;;;;;;;;4992620;28;20195;-31
2022/06/14 04:10:51;;;;;;;2.20;1.90;;;;;;;;;;4990482;28;20203;-28
2022/06/14 04:13:25;;;;;;;4.33;2.10;;;;;;;;;;4999273;28;20227;-31
2022/06/14 04:16:04;;;;;;;3.13;2.03;;;;;;;;;;5001943;28;20230;-29
2022/06/14 04:18:38;;;;;;;3.07;2.30;;;;;;;;;;4994196;28;20340;-32
2022/06/14 04:21:10;;;;;;;3.47;2.23;;;;;;;;;;5002395;28;20564;-28
2022/06/14 04:23:40;;;;;;;4.07;2.20;;;;;;;;;;4999863;28;20187;-32
2022/06/14 04:26:09;;;;;;;2.53;2.10;;;;;;;;;;5008452;28;20226;-31
2022/06/14 04:28:41;;;;;;;3.20;2.20;;;;;;;;;;5005108;28;20204;-32
2022/06/14 04:31:12;;;;;;;4.37;2.47;;;;;;;;;;5002885;28;20193;-32
2022/06/14 04:33:42;;;;;;;2.67;2.47;;;;;;;;;;4997896;28;20227;-31
2022/06/14 04:36:10;;;;;;;2.93;2.10;;;;;;;;;;5008279;28;20215;-28
2022/06/14 04:38:39;;;;;;;3.13;2.30;;;;;;;;;;5015460;28;20203;-31
2022/06/14 04:41:09;;;;;;;3.47;2.33;;;;;;;;;;5012779;28;20214;-32
2022/06/14 04:43:39;;;;;;;5.07;2.40;;;;;;;;;;5013844;28;20219;-29
2022/06/14 04:46:09;;;;;;;4.10;2.53;;;;;;;;;;5015078;28;20265;-26
2022/06/14 04:48:40;;;;;;;3.90;2.13;;;;;;;;;;4996895;28;20219;-30
2022/06/14 04:51:10;;;;;;;4.20;2.47;;;;;;;;;;4997198;28;20199;-31
2022/06/14 04:53:40;;;;;;;4.03;2.60;;;;;;;;;;5013275;28;20207;-28
2022/06/14 04:56:11;;;;;;;4.37;2.70;;;;;;;;;;5002318;28;20235;-31
2022/06/14 04:58:40;;;;;;;9.33;2.50;;;;;;;;;;4999147;28;20199;-29
2022/06/14 05:01:11;;;;;;;3.83;2.63;;;;;;;;;;4994693;28;20212;-30
2022/06/14 05:03:44;;;;;;;5.83;2.63;;;;;;;;;;5000961;28;20211;-32
2022/06/14 05:06:14;;;;;;;2.70;2.50;;;;;;;;;;5000426;28;20695;-30
2022/06/14 05:08:43;;;;;;;3.70;2.60;;;;;;;;;;5011914;28;20200;-27
2022/06/14 05:11:13;;;;;;;9.20;2.57;;;;;;;;;;5009291;28;20304;-27
2022/06/14 05:13:44;;;;;;;3.00;2.80;;;;;;;;;;5003599;28;20210;-30
2022/06/14 05:16:13;;;;;;;2.70;2.50;;;;;;;;;;5012291;28;20222;-30
2022/06/14 05:18:49;;;;;;;4.17;2.87;;;;;;;;;;5002023;28;20207;-33
2022/06/14 05:21:19;;;;;;;6.73;2.83;;;;;;;;;;4995195;28;20210;-33
2022/06/14 05:23:48;;;;;;;4.23;2.93;;;;;;;;;;5002660;28;20207;-29
2022/06/14 05:26:20;;;;;;;4.57;2.87;;;;;;;;;;4999740;28;20225;-30
2022/06/14 05:28:51;;;;;;;3.67;2.90;;;;;;;;;;4995918;28;20258;-35
2022/06/14 05:31:23;;;;;;;4.47;2.90;;;;;;;;;;5010558;28;20192;-33
2022/06/14 05:33:55;;;;;;;7.03;2.83;;;;;;;;;;5005232;28;20502;-32
2022/06/14 05:36:25;;;;;;;4.65;3.13;;;;;;;;;;5007344;28;20228;-31
2022/06/14 05:38:55;;;;;;;4.40;3.03;;;;;;;;;;5004527;28;20203;-28
2022/06/14 05:41:25;;;;;;;4.45;2.47;;;;;;;;;;5003357;28;20223;-30
2022/06/14 05:43:54;;;;;;;4.47;3.03;;;;;;;;;;5009554;28;20206;-30
2022/06/14 05:46:25;;;;;;;9.60;2.90;;;;;;;;;;5001695;28;20234;-30
2022/06/14 05:48:56;;;;;;;5.25;2.92;;;;;;;;;;5001427;28;20207;-31
2022/06/14 05:51:25;;;;;;;3.75;2.88;;;;;;;;;;5001213;28;20202;-30
2022/06/14 05:53:55;;;;;;;5.23;3.10;;;;;;;;;;5013021;28;20261;-30
2022/06/14 05:56:26;;;;;;;3.93;2.50;;;;;;;;;;5005884;28;20223;-29
2022/06/14 05:58:55;;;;;;;3.72;2.55;;;;;;;;;;4993297;28;20302;-32
2022/06/14 06:01:26;;;;;;;2.97;2.63;;;;;;;;;;4993445;28;20220;-31
2022/06/14 06:03:58;;;;;;;2.92;2.60;;;;;;;;;;4999414;28;20212;-30
2022/06/14 06:06:27;;;;;;;3.60;2.58;;;;;;;;;;5008894;28;20234;-28
2022/06/14 06:08:57;;;;;;;3.92;3.03;;;;;;;;;;5013154;28;20256;-28
2022/06/14 06:11:27;;;;;;;3.55;2.80;;;;;;;;;;5009195;28;20273;-31
2022/06/14 06:13:57;;;;;;;4.68;3.05;;;;;;;;;;5010091;28;20204;-32
2022/06/14 06:16:32;;;;;;;5.05;2.70;;;;;;;;;;5006644;28;20222;-32
2022/06/14 06:19:02;;;;;;;4.45;2.67;;;;;;;;;;4996375;28;20246;-28
2022/06/14 06:21:32;;;;;;;3.88;2.60;;;;;;;;;;4993990;28;20205;-29
2022/06/14 06:24:01;;;;;;;4.35;2.78;;;;;;;;;;5002549;28;20203;-32
2022/06/14 06:26:30;;;;;;;6.38;2.90;;;;;;;;;;5006495;28;20228;-30
2022/06/14 06:29:01;;;;;;;4.70;3.30;;;;;;;;;;5013308;28;20205;-28
2022/06/14 06:31:30;;;;;;;4.05;3.30;;;;;;;;;;4996223;28;20198;-32
2022/06/14 06:33:58;;;;;;;5.15;2.83;;;;;;;;;;5000827;28;20213;-28
2022/06/14 06:36:33;;;;;;;4.00;2.90;;;;;;;;;;5008270;28;20247;-29
2022/06/14 06:39:06;;;;;;;5.30;2.92;;;;;;;;;;4995606;28;20194;-30
2022/06/14 06:41:54;;;;;;;6.70;3.03;;;;;;;;;;5002684;28;20208;-32
2022/06/14 06:44:24;;;;;;;5.88;3.15;;;;;;;;;;4992237;28;20194;-30
2022/06/14 06:46:53;;;;;;;4.43;3.25;;;;;;;;;;4993452;28;20284;-33
2022/06/14 06:49:24;;;;;;;6.20;3.30;;;;;;;;;;5011217;28;20212;-34
2022/06/14 06:51:56;;;;;;;4.78;3.10;;;;;;;;;;5012051;28;20205;-31
2022/06/14 06:54:25;;;;;;;3.45;2.70;;;;;;;;;;5003856;28;20237;-31
2022/06/14 06:56:53;;;;;;;5.80;3.30;;;;;;;;;;5002049;28;20245;-32
2022/06/14 06:59:24;;;;;;;7.18;3.30;;;;;;;;;;4999778;28;20206;-33
2022/06/14 07:01:51;;;;;;;6.03;3.30;;;;;;;;;;5009041;28;20214;-30
2022/06/14 07:04:20;;;;;;;4.75;3.10;;;;;;;;;;5003944;28;20211;-31
2022/06/14 07:06:49;;;;;;;4.15;2.88;;;;;;;;;;4992481;28;20241;-31
2022/06/14 07:09:20;;;;;;;5.47;3.05;;;;;;;;;;5005915;28;20216;-30
2022/06/14 07:11:49;;;;;;;3.72;2.70;;;;;;;;;;4999084;28;20233;-30
2022/06/14 07:14:18;;;;;;;5.30;2.67;;;;;;;;;;5006136;28;20216;-30
2022/06/14 07:16:49;;;;;;;5.05;3.28;;;;;;;;;;4992583;28;20226;-29
2022/06/14 07:19:20;;;;;;;7.03;3.10;;;;;;;;;;4992932;28;20207;-30
2022/06/14 07:21:52;;;;;;;5.65;3.10;;;;;;;;;;5000933;28;20199;-30
2022/06/14 07:24:23;;;;;;;6.05;2.90;;;;;;;;;;4992955;28;20281;-32
2022/06/14 07:26:51;;;;;;;5.28;3.05;;;;;;;;;;5001867;28;20519;-32
2022/06/14 07:29:20;;;;;;;5.70;3.22;;;;;;;;;;4992493;28;20210;-33
2022/06/14 07:31:51;;;;;;;4.60;3.08;;;;;;;;;;4992251;28;20243;-30
2022/06/14 07:34:18;;;;;;;6.90;3.17;;;;;;;;;;4998471;28;20207;-30
2022/06/14 07:36:53;;;;;;;5.45;3.40;;;;;;;;;;5009850;28;20225;-27
2022/06/14 07:39:23;;;;;;;5.43;3.03;;;;;;;;;;4992947;28;20190;-32
2022/06/14 07:41:56;;;;;;;6.07;3.40;;;;;;;;;;4996979;28;20209;-31
2022/06/14 07:44:28;;;;;;;6.38;3.35;;;;;;;;;;4996361;28;20270;-30
2022/06/14 07:46:58;;;;;;;3.75;2.92;;;;;;;;;;5003708;28;20237;-28
2022/06/14 07:49:30;;;;;;;6.53;3.38;;;;;;;;;;5008094;28;20292;-32
2022/06/14 07:51:59;;;;;;;4.05;2.80;;;;;;;;;;5013420;28;20198;-32
2022/06/14 07:54:29;;;;;;;6.18;2.92;;;;;;;;;;5006835;28;20206;-31
2022/06/14 07:57:02;;;;;;;3.92;2.90;;;;;;;;;;5013620;28;20241;-32
2022/06/14 08:04:35;;;;;;;4.82;2.70;;;;;;;;;;5001888;28;20211;-37
2022/06/14 08:07:04;;;;;;;3.58;2.70;;;;;;;;;;5008388;28;20229;-43
2022/06/14 08:09:36;;;;;;;4.47;2.70;;;;;;;;;;5010342;28;20215;-46
2022/06/14 08:12:07;;;;;;;4.10;2.95;;;;;;;;;;5001909;28;20209;-43
2022/06/14 08:14:36;;;;;;;4.50;2.60;;;;;;;;;;4996177;28;20203;-46
2022/06/14 08:17:04;;;;;;;4.10;2.47;;;;;;;;;;4997994;28;20228;-43
2022/06/14 08:19:33;;;;;;;3.97;2.45;;;;;;;;;;5004124;28;20202;-46
2022/06/14 08:22:03;;;;;;;4.95;2.70;;;;;;;;;;5000873;28;20690;-43
2022/06/14 08:24:33;;;;;;;3.25;2.33;;;;;;;;;;4993329;28;20253;-40
2022/06/14 08:27:04;;;;;;;4.60;2.80;;;;;;;;;;4996990;28;20222;-42
2022/06/14 08:29:34;;;;;;;5.25;2.60;;;;;;;;;;5004443;28;20206;-43
2022/06/14 08:32:03;;;;;;;5.25;2.47;;;;;;;;;;5006958;28;20217;-46
2022/06/14 08:34:32;;;;;;;5.50;3.42;;;;;;;;;;5002151;28;20222;-44
2022/06/14 08:37:01;;;;;;;6.20;2.60;;;;;;;;;;5012436;28;20230;-43
2022/06/14 08:39:30;;;;;;;5.70;2.63;;;;;;;;;;5012620;28;20213;-43
2022/06/14 08:42:00;;;;;;;3.70;2.92;;;;;;;;;;5009365;28;20400;-46
2022/06/14 08:44:32;;;;;;;4.20;2.95;;;;;;;;;;5004868;28;20198;-45
2022/06/14 08:47:09;;;;;;;4.15;2.38;;;;;;;;;;5007235;28;20279;-42
2022/06/14 08:49:45;;;;;;;6.05;2.75;;;;;;;;;;5008251;28;20208;-44
2022/06/14 08:52:27;;;;;;;5.18;2.90;;;;;;;;;;4992955;28;20209;-43
2022/06/14 08:55:10;;;;;;;6.55;2.83;;;;;;;;;;4990452;28;20206;-42
2022/06/14 08:57:57;;;;;;;4.20;2.38;;;;;;;;;;5003061;28;20240;-41
2022/06/14 09:00:38;;;;;;;4.10;2.63;;;;;;;;;;5011765;28;20216;-44
2022/06/14 09:03:33;;;;;;;5.53;2.47;;;;;;;;;;5002660;28;20209;-43
2022/06/14 09:06:12;;;;;;;3.03;2.40;;;;;;;;;;4976340;28;20230;-42
2022/06/14 09:09:04;;;;;;;3.83;2.50;;;;;;;;;;5012318;28;20286;-44
2022/06/14 09:12:04;;;;;;;3.47;2.30;;;;;;;;;;5002968;28;20201;-44
2022/06/14 09:14:49;;;;;;;3.78;2.05;;;;;;;;;;4969809;28;20206;-44
2022/06/14 09:17:29;;;;;;;4.75;2.55;;;;;;;;;;4967040;28;20229;-45
2022/06/14 09:20:01;;;;;;;5.05;2.25;;;;;;;;;;4982112;28;20205;-42
2022/06/14 09:22:35;;;;;;;6.05;3.08;;;;;;;;;;4995760;28;20547;-43
2022/06/14 09:25:07;;;;;;;7.38;2.45;;;;;;;;;;4991761;28;20299;-46
2022/06/14 09:27:45;;;;;;;3.67;2.03;;;;;;;;;;4992530;28;20221;-40
2022/06/14 09:30:34;;;;;;;5.97;2.47;;;;;;;;;;4997086;28;20204;-46
2022/06/14 09:33:13;;;;;;;3.08;1.90;;;;;;;;;;5001857;28;20208;-43
2022/06/14 09:36:05;;;;;;;5.68;2.45;;;;;;;;;;4992049;28;20224;-40
2022/06/14 09:38:47;;;;;;;5.53;2.30;;;;;;;;;;4992145;28;20207;-45
2022/06/14 09:41:22;;;;;;;4.60;1.98;;;;;;;;;;4996670;28;20208;-40
2022/06/14 09:44:02;;;;;;;3.72;2.03;;;;;;;;;;5001717;28;20213;-41
2022/06/14 09:46:42;;;;;;;4.50;2.40;;;;;;;;;;4990153;28;20231;-44
2022/06/14 09:49:22;;;;;;;4.55;2.47;;;;;;;;;;4992377;28;20215;-45
2022/06/14 09:52:10;;;;;;;9.00;2.30;;;;;;;;;;5001554;28;20203;-43
2022/06/14 09:54:51;;;;;;;5.15;2.53;;;;;;;;;;5011493;28;20295;-44
2022/06/14 09:57:24;;;;;;;5.20;2.22;;;;;;;;;;5004522;28;20239;-40
2022/06/14 10:00:07;;;;;;;4.70;2.17;;;;;;;;;;4998495;28;20204;-44
2022/06/14 10:02:42;;;;;;;4.18;2.00;;;;;;;;;;5000024;28;20215;-43
2022/06/14 10:05:28;;;;;;;3.17;2.00;;;;;;;;;;4997123;28;20206;-43
2022/06/14 10:08:12;;;;;;;2.58;1.80;;;;;;;;;;4991508;28;20222;-43
2022/06/14 10:10:47;;;;;;;3.95;1.90;;;;;;;;;;4993705;28;20212;-39
2022/06/14 10:13:31;;;;;;;4.60;2.00;;;;;;;;;;4998989;28;20229;-38
2022/06/14 10:16:02;;;;;;;5.72;2.20;;;;;;;;;;5009989;28;20231;-38
2022/06/14 10:18:46;;;;;;;2.95;1.98;;;;;;;;;;4990385;28;20209;-40
2022/06/14 10:21:19;;;;;;;2.30;1.98;;;;;;;;;;4998995;28;20200;-40
2022/06/14 10:23:54;;;;;;;3.50;1.80;;;;;;;;;;4991241;28;20239;-39
2022/06/14 10:29:32;;;;;;;5.00;2.00;;;;;;;;;;5001983;28;20475;-36
2022/06/14 10:32:10;;;;;;;5.15;2.00;;;;;;;;;;4998255;28;20207;-38
2022/06/14 10:34:42;;;;;;;3.75;2.25;;;;;;;;;;4990831;28;20200;-46
2022/06/14 10:37:24;;;;;;;2.60;2.08;;;;;;;;;;4997559;28;20243;-43
2022/06/14 10:40:01;;;;;;;4.30;2.10;;;;;;;;;;4990704;28;20200;-45
2022/06/14 10:42:30;;;;;;;5.60;2.13;;;;;;;;;;5002048;28;20274;-43
2022/06/14 10:45:01;;;;;;;4.82;1.90;;;;;;;;;;5001950;28;20198;-43
2022/06/14 10:47:34;;;;;;;4.93;2.05;;;;;;;;;;5001681;28;20225;-41
2022/06/14 10:50:07;;;;;;;5.95;2.28;;;;;;;;;;4998280;28;20210;-47
2022/06/14 10:52:52;;;;;;;3.75;2.45;;;;;;;;;;4990494;28;20207;-43
2022/06/14 10:55:34;;;;;;;5.72;2.50;;;;;;;;;;4999952;28;20199;-45
2022/06/14 10:58:15;;;;;;;4.18;2.03;;;;;;;;;;4992155;28;20285;-45
2022/06/14 11:00:48;;;;;;;3.13;1.93;;;;;;;;;;5000287;28;20199;-40
2022/06/14 11:03:41;;;;;;;4.88;1.77;;;;;;;;;;5003198;28;20215;-42
2022/06/14 11:06:23;;;;;;;3.30;2.30;;;;;;;;;;4991004;28;20230;-44
2022/06/14 11:08:55;;;;;;;3.93;1.80;;;;;;;;;;4969251;28;20219;-40
2022/06/14 11:11:55;;;;;;;2.80;1.90;;;;;;;;;;4993215;28;20203;-42
2022/06/14 11:14:28;;;;;;;5.88;2.33;;;;;;;;;;4965571;28;20208;-44
2022/06/14 11:17:14;;;;;;;4.63;2.10;;;;;;;;;;4963155;28;20318;-43
2022/06/14 11:19:48;;;;;;;3.10;1.90;;;;;;;;;;4990149;28;20254;-43
2022/06/14 11:22:27;;;;;;;3.47;2.10;;;;;;;;;;4996112;28;20298;-42
2022/06/14 11:24:57;;;;;;;3.50;2.03;;;;;;;;;;4991545;28;20191;-44
2022/06/14 11:27:30;;;;;;;3.57;1.70;;;;;;;;;;4998986;28;20504;-45
2022/06/14 11:30:09;;;;;;;3.47;2.10;;;;;;;;;;5001819;28;20196;-43
2022/06/14 11:32:39;;;;;;;3.58;2.05;;;;;;;;;;4990937;28;20246;-43
2022/06/14 11:35:11;;;;;;;3.95;2.15;;;;;;;;;;4999960;28;20223;-44
2022/06/14 11:37:51;;;;;;;3.57;1.90;;;;;;;;;;5011518;28;20246;-40
2022/06/14 11:40:19;;;;;;;2.97;1.87;;;;;;;;;;5011532;28;20214;-43
2022/06/14 11:42:58;;;;;;;3.45;2.38;;;;;;;;;;5004561;28;20221;-45
2022/06/14 11:45:33;;;;;;;4.70;2.40;;;;;;;;;;5000827;28;20214;-42
2022/06/14 11:48:07;;;;;;;6.03;2.42;;;;;;;;;;5003079;28;20277;-42
2022/06/14 11:50:37;;;;;;;2.67;1.98;;;;;;;;;;5000668;28;20242;-42
2022/06/14 11:53:09;;;;;;;3.58;1.85;;;;;;;;;;4995910;28;20199;-45
2022/06/14 11:55:39;;;;;;;3.33;2.10;;;;;;;;;;4994549;28;20208;-42
2022/06/14 11:58:12;;;;;;;3.83;2.05;;;;;;;;;;4991020;28;20214;-41
2022/06/14 12:00:52;;;;;;;2.15;1.80;;;;;;;;;;4991476;28;20258;-40
2022/06/14 12:03:26;;;;;;;4.18;1.92;;;;;;;;;;5001981;28;20250;-42
2022/06/14 12:05:57;;;;;;;2.67;2.00;;;;;;;;;;5001808;28;20233;-46
2022/06/14 12:08:34;;;;;;;4.70;2.30;;;;;;;;;;5010200;28;20199;-45
2022/06/14 12:11:08;;;;;;;2.33;1.90;;;;;;;;;;5005630;28;20214;-46
2022/06/14 12:13:44;;;;;;;5.88;2.38;;;;;;;;;;4989494;28;20649;-44
2022/06/14 12:16:15;;;;;;;3.30;2.13;;;;;;;;;;4996565;28;20231;-39
2022/06/14 12:18:44;;;;;;;3.40;2.30;;;;;;;;;;5007799;28;20266;-44
2022/06/14 12:21:16;;;;;;;3.55;2.30;;;;;;;;;;5014333;28;20207;-41
2022/06/14 12:23:45;;;;;;;3.60;2.25;;;;;;;;;;5013880;28;20253;-41
2022/06/14 12:29:05;;;;;;;3.05;2.28;;;;;;;;;;4995009;28;20199;-40
2022/06/14 12:31:39;;;;;;;3.97;2.10;;;;;;;;;;5007051;28;20203;-45
2022/06/14 12:34:10;;;;;;;3.30;2.10;;;;;;;;;;5007660;28;20259;-44
2022/06/14 12:36:43;;;;;;;2.55;2.20;;;;;;;;;;5012596;28;20290;-45
2022/06/14 12:39:15;;;;;;;2.72;2.08;;;;;;;;;;5013447;28;20232;-38
2022/06/14 12:41:45;;;;;;;4.85;2.17;;;;;;;;;;5007967;28;20234;-41
2022/06/14 12:44:23;;;;;;;4.85;2.10;;;;;;;;;;5004402;28;20205;-47
2022/06/14 12:46:52;;;;;;;3.38;1.80;;;;;;;;;;4994080;28;20655;-41
2022/06/14 12:49:22;;;;;;;1.85;1.73;;;;;;;;;;4994530;28;20242;-43
2022/06/14 12:51:52;;;;;;;3.63;2.10;;;;;;;;;;5012297;28;20266;-47
2022/06/14 12:54:24;;;;;;;2.75;2.13;;;;;;;;;;5008866;28;20204;-43
2022/06/14 12:56:54;;;;;;;3.40;2.15;;;;;;;;;;4999167;28;20258;-42
2022/06/14 12:59:24;;;;;;;4.32;2.10;;;;;;;;;;4997776;28;20213;-47
2022/06/14 13:01:57;;;;;;;5.20;2.42;;;;;;;;;;4992195;28;20237;-43
2022/06/14 13:04:26;;;;;;;7.65;2.63;;;;;;;;;;5008728;28;20216;-42
2022/06/14 13:06:57;;;;;;;3.35;2.20;;;;;;;;;;5004468;28;20311;-44
2022/06/14 13:09:29;;;;;;;4.00;2.40;;;;;;;;;;5013240;28;20276;-45
2022/06/14 13:11:59;;;;;;;7.65;2.38;;;;;;;;;;5003766;28;20263;-42
2022/06/14 13:14:29;;;;;;;3.70;2.45;;;;;;;;;;5000946;28;20204;-44
2022/06/14 13:17:04;;;;;;;2.25;1.88;;;;;;;;;;4999886;28;20268;-41
2022/06/14 13:19:35;;;;;;;4.32;2.53;;;;;;;;;;5001969;28;20208;-43
2022/06/14 13:22:12;;;;;;;4.97;2.22;;;;;;;;;;5001738;28;20233;-40
2022/06/14 13:24:45;;;;;;;4.95;1.98;;;;;;;;;;5000046;28;20267;-42
2022/06/14 13:27:21;;;;;;;2.80;2.25;;;;;;;;;;5006117;28;20228;-47
2022/06/14 13:29:53;;;;;;;3.60;2.30;;;;;;;;;;5001001;28;20237;-42
2022/06/14 13:32:34;;;;;;;2.92;2.00;;;;;;;;;;4992944;28;20212;-43
2022/06/14 13:35:10;;;;;;;3.47;2.30;;;;;;;;;;5003166;28;20212;-46
2022/06/14 13:37:52;;;;;;;2.10;1.77;;;;;;;;;;4995077;28;20242;-44
2022/06/14 13:40:23;;;;;;;4.18;2.22;;;;;;;;;;4994861;28;20194;-39
2022/06/14 13:42:53;;;;;;;2.63;1.83;;;;;;;;;;4999767;28;20295;-46
2022/06/14 13:45:26;;;;;;;2.90;1.88;;;;;;;;;;5006505;28;20215;-43
2022/06/14 13:47:57;;;;;;;2.13;1.90;;;;;;;;;;5004075;28;20285;-42
2022/06/14 13:50:28;;;;;;;5.05;1.95;;;;;;;;;;5008685;28;20205;-43
2022/06/14 13:52:58;;;;;;;4.07;1.90;;;;;;;;;;4991724;28;20285;-44
2022/06/14 13:55:28;;;;;;;3.53;1.98;;;;;;;;;;4994647;28;20285;-42
2022/06/14 13:57:58;;;;;;;4.18;1.98;;;;;;;;;;4997768;28;20319;-47
2022/06/14 14:08:11;;;;;;;3.13;1.80;;;;;;;;;;5011867;28;20229;-28
2022/06/14 14:10:43;;;;;;;1.60;1.50;;;;;;;;;;5013518;28;20208;-30
2022/06/14 14:13:25;;;;;;;3.13;1.90;;;;;;;;;;5083175;28;20547;-42
2022/06/14 14:15:53;;;;;;;3.38;1.90;;;;;;;;;;5085179;28;20234;-35
2022/06/14 14:18:32;;;;;;;6.70;1.70;;;;;;;;;;5056690;28;20297;-31
2022/06/14 14:21:02;;;;;;;2.90;1.70;;;;;;;;;;5062098;28;20251;-37
2022/06/14 14:23:33;;;;;;;3.83;2.17;;;;;;;;;;5069188;28;20214;-34
2022/06/14 14:26:02;;;;;;;2.25;2.00;;;;;;;;;;5066268;28;20288;-36
2022/06/14 14:28:37;;;;;;;3.28;1.83;;;;;;;;;;5066186;28;20210;-38
2022/06/14 14:31:13;;;;;;;3.83;1.98;;;;;;;;;;5069284;28;20202;-44
2022/06/14 14:33:44;;;;;;;5.25;2.10;;;;;;;;;;5061913;28;20569;-36
2022/06/14 14:36:15;;;;;;;3.97;2.03;;;;;;;;;;5069292;28;20216;-37
2022/06/14 14:38:46;;;;;;;3.65;2.03;;;;;;;;;;5069322;28;20187;-34
2022/06/14 14:41:37;;;;;;;2.50;2.00;;;;;;;;;;5058342;28;20207;-37
2022/06/14 14:44:09;;;;;;;3.08;2.28;;;;;;;;;;5064361;28;20214;-40
2022/06/14 14:46:38;;;;;;;2.20;1.90;;;;;;;;;;5068515;28;20222;-42
2022/06/14 14:49:07;;;;;;;2.95;1.63;;;;;;;;;;5068002;28;20211;-39
2022/06/14 14:51:39;;;;;;;3.08;1.95;;;;;;;;;;5069856;28;20232;-37
2022/06/14 14:54:11;;;;;;;2.53;2.17;;;;;;;;;;5068499;28;20612;-38
2022/06/14 14:56:41;;;;;;;2.10;1.65;;;;;;;;;;5058815;28;20237;-33
2022/06/14 14:59:14;;;;;;;4.00;2.10;;;;;;;;;;5069060;28;20211;-41
2022/06/14 15:07:28;;;;;;;3.08;1.88;;;;;;;;;;5062989;28;20714;-39
2022/06/14 15:09:58;;;;;;;1.98;1.70;;;;;;;;;;5066348;28;20191;-35
2022/06/14 15:12:26;;;;;;;3.42;1.92;;;;;;;;;;5058051;28;20227;-36
2022/06/14 15:15:06;;;;;;;3.75;2.03;;;;;;;;;;5055844;28;20211;-40
2022/06/14 15:20:19;;;;;;;2.80;1.90;;;;;;;;;;5067090;28;20202;-36
2022/06/14 15:22:48;;;;;;;3.05;1.67;;;;;;;;;;5065281;28;20211;-33
2022/06/14 15:25:18;;;;;;;2.92;1.90;;;;;;;;;;5055054;28;20212;-37
2022/06/14 15:27:48;;;;;;;3.47;2.33;;;;;;;;;;5046135;28;20232;-38
2022/06/14 15:30:17;;;;;;;3.67;2.10;;;;;;;;;;5048161;28;20219;-32
2022/06/14 15:32:44;;;;;;;3.83;1.95;;;;;;;;;;5042910;28;20232;-37
2022/06/14 15:35:19;;;;;;;3.30;2.08;;;;;;;;;;5041750;28;20544;-41
2022/06/14 15:38:02;;;;;;;3.88;2.00;;;;;;;;;;5052463;28;20234;-36
2022/06/14 15:40:29;;;;;;;2.05;1.90;;;;;;;;;;5054422;28;20193;-31
2022/06/14 15:42:58;;;;;;;5.47;2.35;;;;;;;;;;5054739;28;20205;-35
2022/06/14 15:45:29;;;;;;;4.03;2.10;;;;;;;;;;5043313;28;20226;-38
2022/06/14 15:47:58;;;;;;;2.50;2.08;;;;;;;;;;5044427;28;20200;-37